Time;durP1;ratioP1;P1;durP2;ratioP2;P2;SDS_P1;SDS_P2;PMS_P1;PMS_P2;Temp;Humidity;BMP_temperature;BMP_pressure;BME280_temperature;BME280_humidity;BME280_pressure;Samples;Min_cycle;Max_cycle;Signal;HPM_P1;HPM_P2
2021/11/17 02:28:06;;;;;;;20.02;14.00;;;;;;;8.84;60.41;95634.13;4991105;28;20026;-73
2021/11/17 02:30:48;;;;;;;20.55;14.25;;;;;;;9.35;59.68;95633.56;4990562;28;20124;-75
2021/11/17 02:33:35;;;;;;;21.52;14.13;;;;;;;10.07;58.65;95622.00;4989245;28;20054;-75
2021/11/17 02:36:12;;;;;;;19.38;13.40;;;;;;;8.72;60.79;95635.56;4990317;28;20614;-76
2021/11/17 02:39:09;;;;;;;21.20;14.35;;;;;;;9.26;60.23;95635.25;4988145;28;20476;-76
2021/11/17 02:41:38;;;;;;;19.17;13.27;;;;;;;8.36;61.67;95637.72;4989600;28;20022;-76
2021/11/17 02:44:22;;;;;;;20.55;12.57;;;;;;;7.82;63.39;95642.81;4990531;28;20026;-77
2021/11/17 02:46:59;;;;;;;19.98;12.85;;;;;;;8.20;63.04;95634.38;4990879;28;20100;-77
2021/11/17 02:49:31;;;;;;;20.40;14.48;;;;;;;9.11;59.88;95625.63;4994053;28;20032;-75
2021/11/17 02:52:15;;;;;;;18.92;13.70;;;;;;;9.30;60.02;95633.63;4992520;28;20113;-75
2021/11/17 02:54:56;;;;;;;19.10;14.30;;;;;;;9.43;59.22;95644.66;4991573;28;20046;-74
2021/11/17 02:57:44;;;;;;;26.33;14.82;;;;;;;9.09;59.90;95648.19;4992600;28;20703;-75
2021/11/17 03:00:18;;;;;;;23.75;15.02;;;;;;;8.72;60.88;95652.28;4993366;28;20034;-75
2021/11/17 03:02:44;;;;;;;21.83;14.02;;;;;;;9.04;59.40;95649.03;4993899;28;20026;-75
2021/11/17 03:05:37;;;;;;;17.02;13.30;;;;;;;8.27;61.88;95653.41;4993694;28;20026;-74
2021/11/17 03:08:09;;;;;;;19.60;14.07;;;;;;;8.79;61.25;95646.63;4973310;28;20034;-73
2021/11/17 03:10:51;;;;;;;20.58;14.23;;;;;;;8.74;61.20;95646.69;4984985;28;20065;-74
2021/11/17 03:14:04;;;;;;;24.00;15.53;;;;;;;8.74;60.99;95639.50;4992456;28;20027;-75
2021/11/17 03:16:38;;;;;;;24.60;14.73;;;;;;;8.76;60.78;95642.69;4970379;28;20042;-75
2021/11/17 03:19:18;;;;;;;26.13;15.65;;;;;;;8.43;62.10;95644.28;4991911;28;20030;-77
2021/11/17 03:21:56;;;;;;;23.23;14.82;;;;;;;8.87;60.46;95646.03;4977109;28;20109;-76
2021/11/17 03:24:43;;;;;;;23.45;15.15;;;;;;;9.53;59.54;95647.97;4995052;28;20038;-75
2021/11/17 03:27:53;;;;;;;26.60;15.77;;;;;;;9.31;59.46;95645.81;4996245;28;20050;-75
2021/11/17 03:30:18;;;;;;;20.70;14.70;;;;;;;9.27;59.42;95647.50;4992399;28;20384;-77
2021/11/17 03:33:04;;;;;;;22.95;14.27;;;;;;;8.41;61.46;95651.75;4991927;28;20125;-76
2021/11/17 03:35:57;;;;;;;23.90;15.20;;;;;;;8.91;60.01;95651.59;4992681;28;20042;-77
2021/11/17 03:38:59;;;;;;;23.80;15.75;;;;;;;8.81;60.59;95649.81;4993216;28;20085;-76
2021/11/17 03:41:43;;;;;;;20.52;14.65;;;;;;;9.15;60.64;95628.50;4992798;28;20400;-76
2021/11/17 03:44:20;;;;;;;30.23;16.27;;;;;;;8.85;61.13;95650.81;4991427;28;20062;-75
2021/11/17 03:47:09;;;;;;;24.75;15.07;;;;;;;8.91;60.41;95649.72;4992989;28;20026;-76
2021/11/17 03:50:10;;;;;;;26.17;15.80;;;;;;;8.80;60.91;95653.53;4992421;28;20431;-74
2021/11/17 03:52:41;;;;;;;24.38;15.65;;;;;;;9.20;60.10;95660.28;4974417;28;20088;-73
2021/11/17 03:55:31;;;;;;;25.77;15.57;;;;;;;8.79;61.42;95663.34;5011465;28;20053;-76
2021/11/17 03:58:30;;;;;;;21.98;14.90;;;;;;;9.27;59.83;95659.97;5011094;28;20028;-74
2021/11/17 04:01:47;;;;;;;20.02;14.65;;;;;;;9.90;58.40;95652.53;5010533;28;20029;-76
2021/11/17 04:04:27;;;;;;;24.63;15.10;;;;;;;8.73;61.02;95664.47;4988760;28;20411;-73
2021/11/17 04:07:17;;;;;;;27.55;15.93;;;;;;;8.44;61.75;95653.03;5003293;28;20026;-73
2021/11/17 04:09:51;;;;;;;27.20;15.52;;;;;;;8.76;61.06;95657.81;4975248;28;20033;-74
2021/11/17 04:12:17;;;;;;;25.98;16.25;;;;;;;9.51;60.01;95658.06;4975404;28;20026;-75
2021/11/17 04:15:26;;;;;;;27.30;15.65;;;;;;;8.27;62.62;95656.06;4990865;28;20698;-75
2021/11/17 04:18:03;;;;;;;25.30;16.05;;;;;;;9.26;60.06;95661.03;4977692;28;20034;-75
2021/11/17 04:20:44;;;;;;;28.02;16.60;;;;;;;9.19;59.86;95669.31;4991864;28;20052;-75
2021/11/17 04:23:34;;;;;;;27.65;16.08;;;;;;;9.77;58.86;95661.22;4985785;28;20026;-74
2021/11/17 04:26:08;;;;;;;26.20;15.90;;;;;;;8.86;61.16;95673.66;4992091;28;20026;-74
2021/11/17 04:29:01;;;;;;;26.50;16.67;;;;;;;8.76;62.07;95655.16;4972738;28;20023;-73
2021/11/17 04:31:59;;;;;;;25.50;15.68;;;;;;;8.91;60.53;95663.00;4957739;28;20035;-75
2021/11/17 04:34:25;;;;;;;25.65;16.23;;;;;;;8.64;61.63;95662.69;4968492;28;20076;-74
2021/11/17 04:37:10;;;;;;;24.50;15.35;;;;;;;8.75;61.22;95670.31;4984389;28;20397;-74
2021/11/17 04:39:56;;;;;;;23.85;15.98;;;;;;;8.50;62.55;95676.59;4997377;28;20150;-74
2021/11/17 04:42:34;;;;;;;24.35;15.20;;;;;;;9.89;58.71;95668.78;4991838;28;20533;-76
2021/11/17 04:45:20;;;;;;;28.38;16.92;;;;;;;9.92;57.78;95670.06;4991602;28;20106;-76
2021/11/17 04:48:17;;;;;;;24.90;16.63;;;;;;;9.84;57.39;95666.97;4991954;28;20037;-76
2021/11/17 04:51:11;;;;;;;23.48;15.52;;;;;;;10.23;56.56;95652.59;4938770;28;20420;-73
2021/11/17 04:53:42;;;;;;;21.83;15.82;;;;;;;9.67;58.58;95666.66;4988750;28;20019;-76
2021/11/17 04:56:22;;;;;;;26.55;16.05;;;;;;;9.81;57.54;95664.88;5002818;28;20026;-75
2021/11/17 04:59:10;;;;;;;24.45;15.05;;;;;;;9.16;59.39;95663.78;4991955;28;20022;-76
2021/11/17 05:01:57;;;;;;;23.73;15.60;;;;;;;8.68;60.87;95656.56;4990536;28;20037;-75
2021/11/17 05:04:56;;;;;;;25.42;15.60;;;;;;;8.69;61.29;95666.09;4975347;28;20065;-75
2021/11/17 05:07:27;;;;;;;22.05;14.77;;;;;;;9.85;59.20;95655.25;4990869;28;20105;-75
2021/11/17 05:10:29;;;;;;;24.25;15.70;;;;;;;9.75;58.61;95668.69;4994948;28;20041;-76
2021/11/17 05:13:07;;;;;;;18.48;14.38;;;;;;;8.96;60.09;95662.94;4970587;28;20019;-75
2021/11/17 05:15:50;;;;;;;22.75;14.80;;;;;;;9.78;58.46;95659.38;4971722;28;20030;-76
2021/11/17 05:18:19;;;;;;;23.25;15.30;;;;;;;8.93;60.58;95665.34;4971690;28;20481;-75
2021/11/17 05:20:53;;;;;;;23.85;15.55;;;;;;;9.30;59.97;95668.13;4970125;28;20110;-75
2021/11/17 05:23:31;;;;;;;24.05;15.52;;;;;;;10.02;57.61;95624.75;4993554;28;20046;-75
2021/11/17 05:26:25;;;;;;;23.95;15.73;;;;;;;9.67;59.03;95666.66;4978206;28;20077;-75
2021/11/17 05:29:12;;;;;;;24.95;15.25;;;;;;;10.43;57.44;95667.50;4970512;28;20552;-75
2021/11/17 05:32:04;;;;;;;24.85;15.10;;;;;;;10.10;57.12;95661.31;4970492;28;20034;-74
2021/11/17 05:34:39;;;;;;;22.42;14.85;;;;;;;10.73;56.29;95668.09;4971321;28;20023;-74
2021/11/17 05:37:11;;;;;;;24.95;16.05;;;;;;;10.48;56.49;95658.66;4979362;28;20054;-73
2021/11/17 05:39:52;;;;;;;22.25;15.45;;;;;;;10.80;55.62;95665.84;4995139;28;20443;-77
2021/11/17 05:42:41;;;;;;;24.05;15.52;;;;;;;11.18;55.27;95672.63;4973800;28;20173;-75
2021/11/17 05:45:25;;;;;;;25.90;16.45;;;;;;;9.78;56.70;95657.50;4989957;28;20053;-75
2021/11/17 05:48:06;;;;;;;23.15;15.48;;;;;;;9.46;59.01;95667.97;4974311;28;20062;-75
2021/11/17 05:50:35;;;;;;;23.80;16.60;;;;;;;9.97;57.30;95670.00;4989982;28;20524;-75
2021/11/17 05:53:15;;;;;;;24.50;15.43;;;;;;;10.57;56.14;95667.56;4994978;28;20424;-74
2021/11/17 05:56:05;;;;;;;25.05;15.07;;;;;;;11.07;55.67;95681.09;4973070;28;20519;-76
2021/11/17 05:58:31;;;;;;;22.15;15.50;;;;;;;11.33;54.96;95686.75;4971937;28;20054;-74
2021/11/17 06:01:35;;;;;;;23.23;16.55;;;;;;;11.28;54.35;95687.63;4971047;28;20501;-76
2021/11/17 06:04:02;;;;;;;23.00;15.20;;;;;;;9.56;57.69;95687.22;4930599;29;20075;-76
2021/11/17 06:06:27;;;;;;;24.13;15.13;;;;;;;8.83;59.95;95698.84;4933518;29;20365;-75
2021/11/17 06:08:55;;;;;;;20.38;15.73;;;;;;;9.38;59.20;95695.94;4968831;28;20030;-76
2021/11/17 06:11:46;;;;;;;22.13;15.10;;;;;;;8.76;60.99;95698.41;4989505;28;20035;-75
2021/11/17 06:14:34;;;;;;;25.27;15.57;;;;;;;9.01;59.80;95696.59;4983696;28;20125;-75
2021/11/17 06:17:03;;;;;;;22.23;14.93;;;;;;;8.37;61.65;95689.69;4990471;28;20026;-75
2021/11/17 06:19:32;;;;;;;24.13;16.25;;;;;;;8.14;62.98;95697.22;4989006;28;20034;-75
2021/11/17 06:21:58;;;;;;;29.77;16.35;;;;;;;8.97;61.17;95690.25;4991367;28;20049;-75
2021/11/17 06:24:27;;;;;;;25.83;15.98;;;;;;;9.51;59.42;95697.91;4998015;28;20031;-74
2021/11/17 06:26:53;;;;;;;26.60;16.23;;;;;;;9.54;59.22;95696.56;4993807;28;20077;-76
2021/11/17 06:29:35;;;;;;;25.27;15.80;;;;;;;10.18;58.26;95684.56;4994728;28;20027;-75
2021/11/17 06:32:01;;;;;;;25.98;17.25;;;;;;;10.26;57.65;95701.78;4995017;28;20026;-80
2021/11/17 06:34:26;;;;;;;24.63;15.90;;;;;;;9.40;58.88;95703.63;4995102;28;20664;-79
2021/11/17 06:36:52;;;;;;;29.67;17.08;;;;;;;9.32;59.48;95697.88;4993927;28;20026;-82
2021/11/17 06:39:18;;;;;;;22.38;16.30;;;;;;;8.55;62.39;95692.47;5004880;23;20511;-64
2021/11/17 06:41:43;;;;;;;24.90;15.82;;;;;;;8.54;63.44;95711.28;4992778;28;20050;-64
2021/11/17 06:44:09;;;;;;;26.15;16.20;;;;;;;8.58;62.78;95712.31;4992523;28;20490;-66
2021/11/17 06:46:34;;;;;;;28.92;17.08;;;;;;;9.14;61.37;95719.81;4994145;28;20022;-60
2021/11/17 06:48:59;;;;;;;29.13;16.45;;;;;;;9.19;60.91;95719.75;4990407;28;20034;-60
2021/11/17 06:51:25;;;;;;;23.55;16.48;;;;;;;9.20;60.56;95713.38;4992483;28;20022;-60
2021/11/17 06:53:50;;;;;;;26.30;16.38;;;;;;;9.43;60.30;95705.72;4995721;28;20504;-66
2021/11/17 06:56:18;;;;;;;24.65;16.48;;;;;;;9.06;61.44;95731.03;4992587;28;20027;-65
2021/11/17 06:58:44;;;;;;;25.27;16.48;;;;;;;8.54;62.95;95727.19;4992702;28;20026;-65
2021/11/17 07:01:09;;;;;;;26.02;16.48;;;;;;;8.40;62.65;95727.03;4992304;28;20046;-64
2021/11/17 07:03:35;;;;;;;26.52;15.38;;;;;;;8.90;61.51;95724.25;4992075;28;20034;-65
2021/11/17 07:06:00;;;;;;;26.85;16.65;;;;;;;9.60;59.80;95724.66;4992723;28;20157;-65
2021/11/17 07:08:25;;;;;;;27.00;17.38;;;;;;;9.37;60.34;95726.22;4996336;28;20451;-66
2021/11/17 07:10:51;;;;;;;26.13;16.73;;;;;;;9.63;59.59;95734.72;4990893;28;20479;-67
2021/11/17 07:13:18;;;;;;;26.38;16.67;;;;;;;9.81;59.62;95728.66;4990859;28;20046;-69
2021/11/17 07:15:43;;;;;;;22.92;16.13;;;;;;;10.17;58.16;95733.50;4992492;28;20419;-65
2021/11/17 07:18:09;;;;;;;27.67;16.25;;;;;;;9.79;58.07;95706.91;4992568;28;20026;-68
2021/11/17 07:20:36;;;;;;;25.50;15.75;;;;;;;8.64;61.24;95734.28;4990613;28;20037;-63
2021/11/17 07:23:02;;;;;;;26.90;17.20;;;;;;;9.14;60.11;95726.97;4995813;28;20092;-68
2021/11/17 07:25:28;;;;;;;25.92;17.05;;;;;;;9.19;60.07;95751.59;4992205;28;20050;-67
2021/11/17 07:27:56;;;;;;;26.65;16.77;;;;;;;8.65;62.31;95743.81;4991147;28;20122;-68
2021/11/17 07:30:24;;;;;;;27.95;17.95;;;;;;;9.37;60.61;95750.91;4990405;28;20034;-69
2021/11/17 07:32:50;;;;;;;21.92;16.90;;;;;;;10.01;59.03;95748.88;4991696;28;20081;-66
2021/11/17 07:35:17;;;;;;;20.77;15.18;;;;;;;9.32;58.65;95766.09;4992218;28;20027;-67
2021/11/17 07:37:44;;;;;;;24.05;17.42;;;;;;;9.56;59.19;95758.16;4993319;28;20022;-67
2021/11/17 07:40:11;;;;;;;24.00;16.52;;;;;;;9.15;59.86;95758.53;4993145;28;20085;-63
2021/11/17 07:42:37;;;;;;;22.13;16.52;;;;;;;9.25;59.41;95752.34;4992147;28;20037;-66
2021/11/17 07:45:05;;;;;;;20.70;16.48;;;;;;;9.50;58.50;95751.31;4990479;28;20031;-65
2021/11/17 07:47:30;;;;;;;27.75;17.60;;;;;;;9.14;59.20;95756.97;4992085;28;20511;-64
2021/11/17 07:49:56;;;;;;;24.83;17.27;;;;;;;8.66;60.68;95762.13;4991593;28;20041;-66
2021/11/17 07:52:21;;;;;;;24.88;17.33;;;;;;;9.17;60.25;95752.97;4991444;28;20435;-64
2021/11/17 07:54:47;;;;;;;32.42;20.75;;;;;;;10.31;58.12;95769.00;4994765;28;20116;-67
2021/11/17 07:57:12;;;;;;;33.45;20.67;;;;;;;10.21;56.96;95747.03;4991830;28;20082;-63
2021/11/17 07:59:39;;;;;;;24.30;16.52;;;;;;;10.54;55.64;95764.66;4991469;28;20053;-65
2021/11/17 08:02:12;;;;;;;20.27;15.82;;;;;;;10.40;55.71;95769.16;4991774;28;20030;-68
2021/11/17 08:04:39;;;;;;;20.60;15.93;;;;;;;9.65;57.89;95777.72;4991132;28;20464;-65
2021/11/17 08:07:19;;;;;;;20.92;16.67;;;;;;;9.86;56.48;95760.47;4991225;28;20057;-66
2021/11/17 08:09:46;;;;;;;23.63;17.52;;;;;;;10.35;56.52;95782.50;4997710;28;20141;-64
2021/11/17 08:12:12;;;;;;;23.58;16.52;;;;;;;10.51;55.67;95791.88;5000624;28;20026;-64
2021/11/17 08:14:38;;;;;;;24.42;17.55;;;;;;;10.13;57.49;95785.66;4989782;28;20518;-63
2021/11/17 08:17:04;;;;;;;20.63;16.70;;;;;;;10.57;56.05;95771.28;4991499;28;20134;-64
2021/11/17 08:19:30;;;;;;;22.92;16.67;;;;;;;10.18;56.61;95766.19;4989876;28;20546;-65
2021/11/17 08:21:57;;;;;;;20.70;16.92;;;;;;;10.33;55.54;95774.00;4991020;28;20243;-65
2021/11/17 08:24:22;;;;;;;22.17;16.40;;;;;;;10.21;56.50;95779.72;4995399;28;20073;-65
2021/11/17 08:26:48;;;;;;;21.98;16.17;;;;;;;9.61;57.74;95782.00;4995773;28;20045;-63
2021/11/17 08:29:13;;;;;;;20.42;14.98;;;;;;;9.63;58.17;95793.94;4990940;28;20026;-63
2021/11/17 08:31:39;;;;;;;20.48;16.42;;;;;;;10.40;57.03;95798.41;4991355;28;20038;-64
2021/11/17 08:34:05;;;;;;;19.30;15.93;;;;;;;8.66;59.93;95798.47;4991206;28;20022;-63
2021/11/17 08:36:30;;;;;;;19.95;16.00;;;;;;;8.70;60.81;95812.75;4991067;28;20427;-62
2021/11/17 08:38:56;;;;;;;23.08;16.70;;;;;;;9.40;58.82;95812.47;4994506;28;20030;-63
2021/11/17 08:41:25;;;;;;;21.70;16.20;;;;;;;8.47;61.54;95817.66;4995527;28;20101;-64
2021/11/17 08:43:51;;;;;;;21.50;16.80;;;;;;;8.92;60.84;95822.97;4990014;28;20110;-64
2021/11/17 08:46:16;;;;;;;21.70;16.83;;;;;;;10.21;57.92;95798.34;4990831;28;20113;-64
2021/11/17 08:48:42;;;;;;;22.38;16.52;;;;;;;8.61;59.96;95809.91;4989578;28;20388;-64
2021/11/17 08:51:15;;;;;;;24.58;17.27;;;;;;;9.50;59.15;95830.97;4990241;28;20488;-63
2021/11/17 08:53:42;;;;;;;22.42;17.88;;;;;;;10.02;57.73;95832.84;4993267;28;20038;-66
2021/11/17 08:56:10;;;;;;;23.55;16.52;;;;;;;10.29;55.86;95813.69;4989237;28;20032;-64
2021/11/17 08:58:36;;;;;;;19.85;16.40;;;;;;;9.77;57.68;95830.44;4989525;28;20037;-64
2021/11/17 09:01:03;;;;;;;23.25;17.42;;;;;;;9.96;57.79;95841.16;4990174;28;20023;-66
2021/11/17 09:03:29;;;;;;;21.35;17.08;;;;;;;9.16;59.35;95831.00;4990394;28;20484;-63
2021/11/17 09:05:57;;;;;;;21.25;16.73;;;;;;;9.69;58.29;95836.41;4990583;28;20076;-64
2021/11/17 09:08:24;;;;;;;17.20;15.38;;;;;;;9.10;59.62;95839.00;4994788;28;20112;-63
2021/11/17 09:10:54;;;;;;;19.67;16.13;;;;;;;9.45;58.66;95839.78;4994376;28;20038;-63
2021/11/17 09:13:19;;;;;;;20.10;16.33;;;;;;;9.06;59.78;95832.69;4990232;28;20105;-62
2021/11/17 09:15:47;;;;;;;17.90;14.80;;;;;;;9.73;57.72;95830.25;4990361;28;20117;-64
2021/11/17 09:18:14;;;;;;;18.85;16.25;;;;;;;9.46;58.62;95846.66;4990593;28;20033;-65
2021/11/17 09:20:40;;;;;;;18.35;16.23;;;;;;;9.95;57.26;95842.22;4989967;28;20027;-64
2021/11/17 09:23:08;;;;;;;17.17;15.18;;;;;;;9.19;59.85;95846.38;4994137;28;20048;-64
2021/11/17 09:25:34;;;;;;;20.85;14.80;;;;;;;9.58;57.97;95838.34;4996214;28;20034;-64
2021/11/17 09:27:59;;;;;;;22.90;16.40;;;;;;;10.38;57.04;95833.22;4990206;28;20026;-63
2021/11/17 09:30:31;;;;;;;21.48;16.35;;;;;;;10.22;57.29;95842.44;4989763;28;20109;-64
2021/11/17 09:32:59;;;;;;;19.77;15.63;;;;;;;9.30;59.39;95847.88;4988852;28;20030;-64
2021/11/17 09:35:28;;;;;;;18.48;15.18;;;;;;;10.05;57.07;95852.75;4990201;28;20514;-64
2021/11/17 09:37:55;;;;;;;19.63;15.70;;;;;;;10.21;56.48;95856.81;4991899;28;20113;-64
2021/11/17 09:40:43;;;;;;;17.83;15.05;;;;;;;10.87;55.39;95866.66;4995173;28;20045;-63
2021/11/17 09:43:12;;;;;;;15.90;13.23;;;;;;;9.69;57.92;95855.78;4989770;28;20023;-64
2021/11/17 09:45:40;;;;;;;15.43;13.10;;;;;;;10.39;55.60;95829.53;4990351;28;20101;-64
2021/11/17 09:48:06;;;;;;;17.95;14.43;;;;;;;10.70;54.99;95844.28;4988767;28;20113;-64
2021/11/17 09:50:46;;;;;;;16.98;14.43;;;;;;;10.30;55.83;95857.81;4988381;28;20105;-62
2021/11/17 09:53:19;;;;;;;16.40;14.70;;;;;;;10.82;55.90;95861.41;4989064;28;20034;-64
2021/11/17 09:56:02;;;;;;;16.65;13.15;;;;;;;10.76;55.08;95857.25;4995587;28;20032;-64
2021/11/17 09:58:38;;;;;;;16.25;12.57;;;;;;;8.94;60.91;95860.63;4993773;28;20030;-64
2021/11/17 10:01:18;;;;;;;15.63;12.32;;;;;;;8.11;64.19;95867.34;4993406;28;20120;-64
2021/11/17 10:04:06;;;;;;;16.85;12.52;;;;;;;9.06;61.66;95861.09;4993536;28;20049;-64
2021/11/17 10:14:57;;;;;;;13.73;10.57;;;;;;;8.67;61.13;95869.78;4973991;28;20456;-64
2021/11/17 10:17:56;;;;;;;11.82;10.63;;;;;;;9.41;59.71;95878.56;4974387;28;20440;-63
2021/11/17 10:20:25;;;;;;;14.35;9.73;;;;;;;8.39;62.66;95891.66;4973797;28;20078;-64
2021/11/17 10:23:15;;;;;;;13.82;10.50;;;;;;;8.84;61.40;95898.59;4978711;28;20029;-64
2021/11/17 10:26:03;;;;;;;12.82;11.23;;;;;;;8.58;62.60;95892.63;4996101;28;20029;-61
2021/11/17 10:28:40;;;;;;;16.27;11.95;;;;;;;8.63;62.53;95894.47;4993162;28;20105;-63
2021/11/17 10:31:22;;;;;;;12.93;11.52;;;;;;;8.52;63.47;95877.81;4993290;28;20025;-62
2021/11/17 10:33:59;;;;;;;13.32;11.30;;;;;;;9.00;62.01;95880.72;4992964;28;20037;-64
2021/11/17 10:36:47;;;;;;;14.40;11.63;;;;;;;9.78;59.18;95864.72;4993545;28;20014;-63
2021/11/17 10:39:18;;;;;;;17.17;11.88;;;;;;;9.11;61.31;95864.50;4995575;28;20037;-65
2021/11/17 10:41:57;;;;;;;11.98;10.43;;;;;;;7.96;64.07;95875.34;4993203;28;20045;-65
2021/11/17 10:44:36;;;;;;;12.02;10.82;;;;;;;8.73;62.07;95874.00;4992643;28;20030;-64
2021/11/17 10:47:12;;;;;;;11.70;10.32;;;;;;;8.72;62.37;95867.13;4991826;28;20419;-65
2021/11/17 10:49:41;;;;;;;10.50;9.30;;;;;;;9.46;59.14;95861.81;4991719;28;20084;-65
2021/11/17 10:52:10;;;;;;;10.65;8.70;;;;;;;8.77;61.00;95867.09;4993226;28;20058;-63
2021/11/17 10:54:51;;;;;;;8.70;7.85;;;;;;;8.23;62.75;95853.78;5001146;28;20030;-64
2021/11/17 10:57:20;;;;;;;9.57;8.57;;;;;;;8.90;61.02;95841.78;4993367;28;20044;-65
2021/11/17 10:59:46;;;;;;;12.57;8.88;;;;;;;9.11;60.89;95842.47;4992432;28;20054;-64
2021/11/17 11:02:14;;;;;;;10.57;7.70;;;;;;;8.48;61.03;95852.91;4992635;28;20699;-65
2021/11/17 11:04:48;;;;;;;8.68;7.88;;;;;;;8.05;63.31;95850.66;4992363;28;20037;-63
2021/11/17 11:07:17;;;;;;;9.52;8.15;;;;;;;8.66;61.58;95854.16;4990539;28;20046;-64
2021/11/17 11:09:45;;;;;;;10.48;7.72;;;;;;;9.23;59.68;95837.59;4996205;28;20018;-65
2021/11/17 11:12:14;;;;;;;8.65;7.47;;;;;;;8.84;60.00;95856.94;4992277;28;20030;-65
2021/11/17 11:15:12;;;;;;;12.27;8.38;;;;;;;9.00;60.57;95847.03;4992185;28;20058;-65
2021/11/17 11:17:43;;;;;;;8.68;6.53;;;;;;;8.84;61.19;95849.00;4988056;28;20104;-63
2021/11/17 11:20:15;;;;;;;8.07;7.30;;;;;;;9.41;59.68;95849.38;4991940;28;20037;-65
2021/11/17 11:23:02;;;;;;;10.23;7.82;;;;;;;9.11;60.06;95851.22;4991428;28;20022;-64
2021/11/17 11:26:01;;;;;;;9.35;7.55;;;;;;;9.24;60.10;95846.34;4996760;28;20073;-64
2021/11/17 11:28:36;;;;;;;10.27;7.80;;;;;;;9.02;59.95;95852.88;4991644;28;20137;-64
2021/11/17 11:31:06;;;;;;;8.57;7.68;;;;;;;9.03;60.59;95859.75;4992070;28;20106;-65
2021/11/17 11:33:48;;;;;;;10.50;7.10;;;;;;;10.38;56.96;95854.50;4991874;28;20026;-65
2021/11/17 11:36:14;;;;;;;8.43;7.35;;;;;;;10.62;56.06;95843.84;4992066;28;20480;-65
2021/11/17 11:38:49;;;;;;;10.48;7.93;;;;;;;10.69;54.20;95840.81;4992717;28;20092;-65
2021/11/17 11:41:17;;;;;;;9.02;6.75;;;;;;;9.10;58.33;95843.50;4993559;28;20522;-66
2021/11/17 11:43:44;;;;;;;8.10;7.30;;;;;;;9.90;57.27;95827.91;4991730;28;20026;-68
2021/11/17 11:46:33;;;;;;;9.00;7.43;;;;;;;10.89;55.05;95829.88;4991979;28;20029;-63
2021/11/17 11:49:06;;;;;;;6.85;6.15;;;;;;;10.71;54.39;95825.38;4991873;28;20034;-67
2021/11/17 11:51:31;;;;;;;8.55;7.65;;;;;;;10.41;55.05;95832.69;4992151;28;20023;-67
2021/11/17 11:54:14;;;;;;;7.30;6.60;;;;;;;10.64;55.91;95838.22;4994684;28;20080;-67
2021/11/17 11:57:03;;;;;;;7.53;6.68;;;;;;;11.13;53.47;95829.81;4988612;28;20030;-67
2021/11/17 11:59:30;;;;;;;9.93;6.93;;;;;;;10.61;54.85;95833.50;4990845;28;20488;-65
2021/11/17 12:02:12;;;;;;;8.25;6.97;;;;;;;11.37;52.23;95820.91;4990409;28;20023;-65
2021/11/17 12:04:46;;;;;;;8.75;6.28;;;;;;;11.70;52.58;95830.47;4989826;28;20070;-66
2021/11/17 12:07:17;;;;;;;7.25;6.38;;;;;;;10.08;55.94;95837.03;4991736;28;20081;-66
2021/11/17 12:10:05;;;;;;;6.82;6.03;;;;;;;11.25;53.99;95829.34;4993891;28;20022;-66
2021/11/17 12:12:36;;;;;;;6.68;6.03;;;;;;;11.30;52.70;95833.81;4992893;28;20098;-66
2021/11/17 12:15:22;;;;;;;5.75;4.93;;;;;;;10.21;54.98;95837.44;4991263;28;20029;-66
2021/11/17 12:17:52;;;;;;;6.60;5.95;;;;;;;10.75;53.67;95834.38;4991498;28;20037;-66
2021/11/17 12:20:29;;;;;;;6.68;5.65;;;;;;;10.87;53.55;95848.03;4990785;28;20109;-67
2021/11/17 12:22:57;;;;;;;6.22;5.63;;;;;;;10.27;54.91;95838.97;4989229;28;20022;-66
2021/11/17 12:25:30;;;;;;;6.35;5.75;;;;;;;10.22;56.11;95837.13;4994132;28;20026;-66
2021/11/17 12:28:00;;;;;;;5.32;4.82;;;;;;;9.52;56.82;95828.81;4995681;28;20411;-66
2021/11/17 12:30:35;;;;;;;6.35;4.97;;;;;;;11.14;53.26;95831.38;4990519;28;20065;-65
2021/11/17 12:33:13;;;;;;;9.02;5.50;;;;;;;10.69;53.16;95846.13;4991122;28;20038;-64
2021/11/17 12:35:43;;;;;;;5.78;5.18;;;;;;;10.73;53.25;95843.72;4990897;28;20023;-66
2021/11/17 12:38:23;;;;;;;4.85;4.40;;;;;;;9.87;55.87;95830.34;4991055;28;21553;-66
2021/11/17 12:40:56;;;;;;;7.55;4.68;;;;;;;9.34;57.62;95839.06;5009506;22;20058;-71
2021/11/17 12:43:36;;;;;;;4.93;4.35;;;;;;;8.64;59.30;95845.66;4989020;28;20062;-72
2021/11/17 12:46:19;;;;;;;5.00;4.60;;;;;;;9.37;58.25;95843.84;4971297;28;20034;-68
2021/11/17 12:48:52;;;;;;;4.28;3.97;;;;;;;9.08;58.18;95835.84;4971377;28;20473;-72
2021/11/17 12:51:29;;;;;;;4.75;4.35;;;;;;;9.64;56.94;95843.34;4969611;28;20065;-71
2021/11/17 12:54:09;;;;;;;6.85;4.75;;;;;;;9.03;59.01;95838.53;4973773;28;20072;-71
2021/11/17 12:56:43;;;;;;;5.28;4.78;;;;;;;9.02;59.29;95836.94;4972889;28;20023;-70
2021/11/17 12:59:21;;;;;;;9.20;5.35;;;;;;;9.93;56.81;95839.88;4970788;28;20034;-70
2021/11/17 13:01:57;;;;;;;6.10;4.75;;;;;;;9.27;58.37;95841.28;4969541;28;20030;-70
2021/11/17 13:04:36;;;;;;;5.45;4.43;;;;;;;9.11;58.41;95845.91;4970877;28;20393;-71
2021/11/17 13:07:06;;;;;;;8.80;4.95;;;;;;;8.91;59.74;95845.25;4971123;28;20108;-70
2021/11/17 13:09:57;;;;;;;6.25;4.82;;;;;;;10.21;56.22;95840.88;4974896;28;20030;-71
2021/11/17 13:12:34;;;;;;;6.50;5.00;;;;;;;9.06;58.53;95842.50;4971086;28;20026;-70
2021/11/17 13:15:05;;;;;;;9.27;3.92;;;;;;;9.02;58.75;95844.91;4970866;28;20059;-70
2021/11/17 13:17:33;;;;;;;6.18;4.45;;;;;;;10.12;56.64;95842.56;4971096;28;20050;-70
2021/11/17 13:20:25;;;;;;;5.75;4.97;;;;;;;9.38;58.56;95845.41;4970190;28;20034;-71
2021/11/17 13:23:16;;;;;;;9.70;6.15;;;;;;;9.28;59.14;95853.47;4965119;28;20039;-71
2021/11/17 13:25:56;;;;;;;6.25;5.13;;;;;;;10.23;56.80;95846.69;4985251;28;20062;-70
2021/11/17 13:28:45;;;;;;;11.73;5.07;;;;;;;9.13;58.92;95852.78;4971794;28;20023;-70
2021/11/17 13:31:33;;;;;;;6.53;5.35;;;;;;;9.45;58.27;95849.63;4970227;28;20116;-70
2021/11/17 13:34:30;;;;;;;8.55;4.85;;;;;;;9.08;59.35;95846.44;4970703;28;20030;-71
2021/11/17 13:37:15;;;;;;;7.28;5.43;;;;;;;8.78;61.06;95851.97;4970926;28;20035;-70
2021/11/17 13:39:40;;;;;;;6.55;5.03;;;;;;;9.53;58.60;95841.06;4971077;28;20027;-70
2021/11/17 13:42:05;;;;;;;5.75;5.18;;;;;;;9.06;59.14;95837.97;4973749;28;20760;-69
2021/11/17 13:44:31;;;;;;;5.70;5.07;;;;;;;9.05;59.44;95846.19;4970178;28;20038;-70
2021/11/17 13:47:17;;;;;;;4.50;4.10;;;;;;;8.79;59.89;95861.50;4970582;28;20027;-70
2021/11/17 13:49:46;;;;;;;8.90;4.43;;;;;;;8.49;60.74;95857.94;4970143;28;20030;-69
2021/11/17 13:52:14;;;;;;;6.65;4.60;;;;;;;8.99;58.64;95852.63;4970116;28;20473;-69
2021/11/17 13:54:40;;;;;;;4.97;3.78;;;;;;;8.85;58.95;95871.00;4969531;28;20046;-70
2021/11/17 13:57:08;;;;;;;3.97;3.60;;;;;;;8.93;58.29;95859.81;4972309;28;20105;-70
2021/11/17 13:59:34;;;;;;;5.57;3.28;;;;;;;8.22;59.71;95857.50;4968751;28;20022;-70
2021/11/17 14:02:00;;;;;;;6.97;3.80;;;;;;;8.34;60.52;95865.91;4970519;28;20026;-69
2021/11/17 14:04:27;;;;;;;4.45;3.80;;;;;;;8.43;60.92;95874.94;4970102;28;20033;-69
2021/11/17 14:06:54;;;;;;;4.55;3.80;;;;;;;8.61;59.93;95856.84;4970562;28;20059;-69
2021/11/17 14:09:20;;;;;;;5.68;4.40;;;;;;;9.22;58.03;95870.50;4969545;28;20049;-69
2021/11/17 14:11:45;;;;;;;5.30;4.50;;;;;;;9.34;58.15;95868.28;4974787;28;20465;-69
2021/11/17 14:14:11;;;;;;;4.70;4.30;;;;;;;9.74;57.28;95865.56;4968825;28;20027;-70
2021/11/17 14:16:37;;;;;;;7.47;4.20;;;;;;;9.57;56.50;95869.44;4970268;28;20078;-69
2021/11/17 14:19:03;;;;;;;4.72;3.80;;;;;;;8.66;59.33;95881.47;4969862;28;20031;-70
2021/11/17 14:21:29;;;;;;;4.65;4.10;;;;;;;8.56;59.57;95861.09;4970339;28;20102;-70
2021/11/17 14:23:55;;;;;;;5.43;3.78;;;;;;;8.28;60.32;95874.97;4968060;28;20118;-69
2021/11/17 14:26:22;;;;;;;6.90;4.07;;;;;;;8.64;60.17;95896.84;4974650;28;20065;-70
2021/11/17 14:28:52;;;;;;;5.18;4.68;;;;;;;8.79;59.24;95893.31;4976787;28;20019;-70
2021/11/17 14:31:25;;;;;;;5.47;4.82;;;;;;;8.96;59.12;95882.38;4969943;28;20110;-72
2021/11/17 14:33:57;;;;;;;5.28;4.78;;;;;;;8.75;59.02;95898.41;4970081;28;20023;-67
2021/11/17 14:36:25;;;;;;;6.03;5.00;;;;;;;8.54;58.85;95894.25;4969181;28;20118;-67
2021/11/17 14:38:52;;;;;;;9.00;4.85;;;;;;;8.78;58.62;95897.84;4970054;28;20065;-67
2021/11/17 14:41:18;;;;;;;4.47;4.07;;;;;;;7.88;60.37;95899.72;4969431;28;20035;-68